sensor_id;sensor_type;location;lat;lon;timestamp;temperature;humidity
33095;DHT22;19459;53.044;8.910;2023-04-01T00:00:58;10.20;99.90
33095;DHT22;19459;53.044;8.910;2023-04-01T00:03:25;10.20;99.90
33095;DHT22;19459;53.044;8.910;2023-04-01T00:05:54;10.20;99.90
33095;DHT22;19459;53.044;8.910;2023-04-01T00:08:21;10.20;99.90
33095;DHT22;19459;53.044;8.910;2023-04-01T00:10:46;10.20;99.90
33095;DHT22;19459;53.044;8.910;2023-04-01T00:13:12;10.20;99.90
33095;DHT22;19459;53.044;8.910;2023-04-01T00:15:38;10.20;99.90
33095;DHT22;19459;53.044;8.910;2023-04-01T00:18:04;10.20;99.90
33095;DHT22;19459;53.044;8.910;2023-04-01T00:20:30;10.20;99.90
33095;DHT22;19459;53.044;8.910;2023-04-01T00:22:56;10.20;99.90
33095;DHT22;19459;53.044;8.910;2023-04-01T00:25:23;10.20;99.90
33095;DHT22;19459;53.044;8.910;2023-04-01T00:27:48;10.20;99.90
33095;DHT22;19459;53.044;8.910;2023-04-01T00:30:15;10.20;99.90
33095;DHT22;19459;53.044;8.910;2023-04-01T00:32:41;10.10;99.90
33095;DHT22;19459;53.044;8.910;2023-04-01T00:35:08;10.20;99.90
33095;DHT22;19459;53.044;8.910;2023-04-01T00:37:35;10.20;99.90
33095;DHT22;19459;53.044;8.910;2023-04-01T00:40:03;10.20;99.90
33095;DHT22;19459;53.044;8.910;2023-04-01T00:42:30;10.10;99.90
33095;DHT22;19459;53.044;8.910;2023-04-01T00:44:57;10.10;99.90
33095;DHT22;19459;53.044;8.910;2023-04-01T00:47:23;10.10;99.90
33095;DHT22;19459;53.044;8.910;2023-04-01T00:49:51;10.20;99.90
33095;DHT22;19459;53.044;8.910;2023-04-01T00:52:22;10.10;99.90
33095;DHT22;19459;53.044;8.910;2023-04-01T00:54:52;10.20;99.90
33095;DHT22;19459;53.044;8.910;2023-04-01T00:57:29;10.10;99.90
33095;DHT22;19459;53.044;8.910;2023-04-01T00:59:57;10.10;99.90
33095;DHT22;19459;53.044;8.910;2023-04-01T01:02:24;10.10;99.90
33095;DHT22;19459;53.044;8.910;2023-04-01T01:04:51;10.10;99.90
33095;DHT22;19459;53.044;8.910;2023-04-01T01:07:46;10.10;99.90
33095;DHT22;19459;53.044;8.910;2023-04-01T01:10:33;10.10;99.90
33095;DHT22;19459;53.044;8.910;2023-04-01T01:13:09;10.10;99.90
33095;DHT22;19459;53.044;8.910;2023-04-01T01:16:02;10.10;99.90
33095;DHT22;19459;53.044;8.910;2023-04-01T01:21:30;10.10;99.90
33095;DHT22;19459;53.044;8.910;2023-04-01T01:24:27;10.10;99.90
33095;DHT22;19459;53.044;8.910;2023-04-01T01:27:13;10.20;99.90
33095;DHT22;19459;53.044;8.910;2023-04-01T01:35:30;10.10;99.90
33095;DHT22;19459;53.044;8.910;2023-04-01T01:38:11;10.10;99.90
33095;DHT22;19459;53.044;8.910;2023-04-01T01:40:42;10.10;99.90
33095;DHT22;19459;53.044;8.910;2023-04-01T01:43:11;10.10;99.90
33095;DHT22;19459;53.044;8.910;2023-04-01T01:45:44;10.10;99.90
33095;DHT22;19459;53.044;8.910;2023-04-01T01:48:12;10.10;99.90
33095;DHT22;19459;53.044;8.910;2023-04-01T01:50:38;10.10;99.90
33095;DHT22;19459;53.044;8.910;2023-04-01T01:53:08;10.10;99.90
33095;DHT22;19459;53.044;8.910;2023-04-01T01:55:41;10.10;99.90
33095;DHT22;19459;53.044;8.910;2023-04-01T02:01:04;10.10;99.90
33095;DHT22;19459;53.044;8.910;2023-04-01T02:03:35;10.10;99.90
33095;DHT22;19459;53.044;8.910;2023-04-01T02:06:05;10.10;99.90
33095;DHT22;19459;53.044;8.910;2023-04-01T02:11:16;10.10;99.90
33095;DHT22;19459;53.044;8.910;2023-04-01T02:13:53;10.10;99.90
33095;DHT22;19459;53.044;8.910;2023-04-01T02:16:28;10.10;99.90
33095;DHT22;19459;53.044;8.910;2023-04-01T02:18:58;10.10;99.90
33095;DHT22;19459;53.044;8.910;2023-04-01T02:21:29;10.10;99.90
33095;DHT22;19459;53.044;8.910;2023-04-01T02:23:58;10.10;99.90
33095;DHT22;19459;53.044;8.910;2023-04-01T02:26:26;10.10;99.90
33095;DHT22;19459;53.044;8.910;2023-04-01T02:28:53;10.10;99.90
33095;DHT22;19459;53.044;8.910;2023-04-01T02:31:20;10.10;99.90
33095;DHT22;19459;53.044;8.910;2023-04-01T02:33:47;10.10;99.90
33095;DHT22;19459;53.044;8.910;2023-04-01T02:36:14;10.10;99.90
33095;DHT22;19459;53.044;8.910;2023-04-01T02:38:41;10.10;99.90
33095;DHT22;19459;53.044;8.910;2023-04-01T02:41:08;10.10;99.90
33095;DHT22;19459;53.044;8.910;2023-04-01T02:43:34;10.00;99.90
33095;DHT22;19459;53.044;8.910;2023-04-01T02:46:00;10.00;99.90
33095;DHT22;19459;53.044;8.910;2023-04-01T02:48:27;10.00;99.90
33095;DHT22;19459;53.044;8.910;2023-04-01T02:50:53;10.00;99.90
33095;DHT22;19459;53.044;8.910;2023-04-01T02:53:19;10.00;99.90
33095;DHT22;19459;53.044;8.910;2023-04-01T02:55:45;10.00;99.90
33095;DHT22;19459;53.044;8.910;2023-04-01T02:58:11;10.00;99.90
33095;DHT22;19459;53.044;8.910;2023-04-01T03:00:37;10.00;99.90
33095;DHT22;19459;53.044;8.910;2023-04-01T03:03:03;10.00;99.90
33095;DHT22;19459;53.044;8.910;2023-04-01T03:05:29;10.00;99.90
33095;DHT22;19459;53.044;8.910;2023-04-01T03:07:55;10.00;99.90
33095;DHT22;19459;53.044;8.910;2023-04-01T03:10:21;9.90;99.90
33095;DHT22;19459;53.044;8.910;2023-04-01T03:12:47;10.00;99.90
33095;DHT22;19459;53.044;8.910;2023-04-01T03:15:13;9.90;99.90
33095;DHT22;19459;53.044;8.910;2023-04-01T03:17:41;9.90;99.90
33095;DHT22;19459;53.044;8.910;2023-04-01T03:20:08;9.90;99.90
33095;DHT22;19459;53.044;8.910;2023-04-01T03:22:36;9.90;99.90
33095;DHT22;19459;53.044;8.910;2023-04-01T03:25:03;9.90;99.90
33095;DHT22;19459;53.044;8.910;2023-04-01T03:27:30;9.90;99.90
33095;DHT22;19459;53.044;8.910;2023-04-01T03:29:55;9.90;99.90
33095;DHT22;19459;53.044;8.910;2023-04-01T03:32:21;9.90;99.90
33095;DHT22;19459;53.044;8.910;2023-04-01T03:34:47;9.90;99.90
33095;DHT22;19459;53.044;8.910;2023-04-01T03:37:13;9.90;99.90
33095;DHT22;19459;53.044;8.910;2023-04-01T03:39:39;9.90;99.90
33095;DHT22;19459;53.044;8.910;2023-04-01T03:42:05;9.90;99.90
33095;DHT22;19459;53.044;8.910;2023-04-01T03:44:32;9.90;99.90
33095;DHT22;19459;53.044;8.910;2023-04-01T03:46:59;9.90;99.90
33095;DHT22;19459;53.044;8.910;2023-04-01T03:49:25;9.90;99.90
33095;DHT22;19459;53.044;8.910;2023-04-01T03:51:52;9.80;99.90
33095;DHT22;19459;53.044;8.910;2023-04-01T03:54:18;9.90;99.90
33095;DHT22;19459;53.044;8.910;2023-04-01T03:56:45;9.90;99.90
33095;DHT22;19459;53.044;8.910;2023-04-01T03:59:11;9.90;99.90
33095;DHT22;19459;53.044;8.910;2023-04-01T04:01:37;9.90;99.90
33095;DHT22;19459;53.044;8.910;2023-04-01T04:04:03;9.90;99.90
33095;DHT22;19459;53.044;8.910;2023-04-01T04:06:30;9.90;99.90
33095;DHT22;19459;53.044;8.910;2023-04-01T04:08:55;9.90;99.90
33095;DHT22;19459;53.044;8.910;2023-04-01T04:11:22;9.90;99.90
33095;DHT22;19459;53.044;8.910;2023-04-01T04:13:48;9.90;99.90
33095;DHT22;19459;53.044;8.910;2023-04-01T04:16:15;9.90;99.90
33095;DHT22;19459;53.044;8.910;2023-04-01T04:18:41;9.90;99.90
33095;DHT22;19459;53.044;8.910;2023-04-01T04:21:12;9.90;99.90
33095;DHT22;19459;53.044;8.910;2023-04-01T04:23:39;9.90;99.90
33095;DHT22;19459;53.044;8.910;2023-04-01T04:26:08;9.90;99.90
33095;DHT22;19459;53.044;8.910;2023-04-01T04:28:35;9.90;99.90
33095;DHT22;19459;53.044;8.910;2023-04-01T04:31:02;9.90;99.90
33095;DHT22;19459;53.044;8.910;2023-04-01T04:33:30;9.90;99.90
33095;DHT22;19459;53.044;8.910;2023-04-01T04:35:56;9.90;99.90
33095;DHT22;19459;53.044;8.910;2023-04-01T04:38:24;9.90;99.90
33095;DHT22;19459;53.044;8.910;2023-04-01T04:40:50;9.90;99.90
33095;DHT22;19459;53.044;8.910;2023-04-01T04:43:17;9.80;99.90
33095;DHT22;19459;53.044;8.910;2023-04-01T04:45:43;9.90;99.90
33095;DHT22;19459;53.044;8.910;2023-04-01T04:48:11;9.90;99.90
33095;DHT22;19459;53.044;8.910;2023-04-01T04:50:42;9.80;99.90
33095;DHT22;19459;53.044;8.910;2023-04-01T04:53:15;9.80;99.90
33095;DHT22;19459;53.044;8.910;2023-04-01T04:55:49;9.90;99.90
33095;DHT22;19459;53.044;8.910;2023-04-01T04:58:15;9.90;99.90
33095;DHT22;19459;53.044;8.910;2023-04-01T05:00:42;9.80;99.90
33095;DHT22;19459;53.044;8.910;2023-04-01T05:03:09;9.80;99.90
33095;DHT22;19459;53.044;8.910;2023-04-01T05:05:35;9.80;99.90
33095;DHT22;19459;53.044;8.910;2023-04-01T05:08:02;9.90;99.90
33095;DHT22;19459;53.044;8.910;2023-04-01T05:10:27;9.90;99.90
33095;DHT22;19459;53.044;8.910;2023-04-01T05:12:53;9.90;99.90
33095;DHT22;19459;53.044;8.910;2023-04-01T05:15:19;9.80;99.90
33095;DHT22;19459;53.044;8.910;2023-04-01T05:17:45;9.80;99.90
33095;DHT22;19459;53.044;8.910;2023-04-01T05:20:12;9.80;99.90
33095;DHT22;19459;53.044;8.910;2023-04-01T05:22:39;9.80;99.90
33095;DHT22;19459;53.044;8.910;2023-04-01T05:25:05;9.80;99.90
33095;DHT22;19459;53.044;8.910;2023-04-01T05:27:32;9.90;99.90
33095;DHT22;19459;53.044;8.910;2023-04-01T05:29:58;9.90;99.90
33095;DHT22;19459;53.044;8.910;2023-04-01T05:32:24;9.80;99.90
33095;DHT22;19459;53.044;8.910;2023-04-01T05:34:53;9.90;99.90
33095;DHT22;19459;53.044;8.910;2023-04-01T05:37:19;9.90;99.90
33095;DHT22;19459;53.044;8.910;2023-04-01T05:39:45;9.90;99.90
33095;DHT22;19459;53.044;8.910;2023-04-01T05:42:11;9.90;99.90
33095;DHT22;19459;53.044;8.910;2023-04-01T05:44:37;9.90;99.90
33095;DHT22;19459;53.044;8.910;2023-04-01T05:47:04;9.90;99.90
33095;DHT22;19459;53.044;8.910;2023-04-01T05:49:30;9.90;99.90
33095;DHT22;19459;53.044;8.910;2023-04-01T05:51:56;9.90;99.90
33095;DHT22;19459;53.044;8.910;2023-04-01T05:54:23;9.90;99.90
33095;DHT22;19459;53.044;8.910;2023-04-01T05:56:49;9.90;99.90
33095;DHT22;19459;53.044;8.910;2023-04-01T05:59:15;9.90;99.90
33095;DHT22;19459;53.044;8.910;2023-04-01T06:01:42;9.90;99.90
33095;DHT22;19459;53.044;8.910;2023-04-01T06:04:14;10.00;99.90
33095;DHT22;19459;53.044;8.910;2023-04-01T06:06:42;10.00;99.90
33095;DHT22;19459;53.044;8.910;2023-04-01T06:09:16;10.00;99.90
33095;DHT22;19459;53.044;8.910;2023-04-01T06:15:13;10.00;99.90
33095;DHT22;19459;53.044;8.910;2023-04-01T06:21:21;10.00;99.90
33095;DHT22;19459;53.044;8.910;2023-04-01T06:24:13;10.10;99.90
33095;DHT22;19459;53.044;8.910;2023-04-01T06:53:25;10.20;99.90
33095;DHT22;19459;53.044;8.910;2023-04-01T06:56:03;10.20;99.90
33095;DHT22;19459;53.044;8.910;2023-04-01T06:58:54;10.20;99.90
33095;DHT22;19459;53.044;8.910;2023-04-01T07:01:50;10.20;99.90
33095;DHT22;19459;53.044;8.910;2023-04-01T07:04:40;10.20;99.90
33095;DHT22;19459;53.044;8.910;2023-04-01T07:09:57;10.30;99.90
33095;DHT22;19459;53.044;8.910;2023-04-01T07:12:52;10.30;99.90
33095;DHT22;19459;53.044;8.910;2023-04-01T07:15:36;10.30;99.90
33095;DHT22;19459;53.044;8.910;2023-04-01T07:18:17;10.40;99.90
33095;DHT22;19459;53.044;8.910;2023-04-01T07:20:46;10.40;99.90
33095;DHT22;19459;53.044;8.910;2023-04-01T07:23:28;10.40;99.90
33095;DHT22;19459;53.044;8.910;2023-04-01T07:26:04;10.40;99.90
33095;DHT22;19459;53.044;8.910;2023-04-01T07:28:42;10.50;99.90
33095;DHT22;19459;53.044;8.910;2023-04-01T07:40:23;10.60;99.90
33095;DHT22;19459;53.044;8.910;2023-04-01T07:43:14;10.70;99.90
33095;DHT22;19459;53.044;8.910;2023-04-01T07:46:24;10.70;99.90
33095;DHT22;19459;53.044;8.910;2023-04-01T07:49:06;10.80;99.90
33095;DHT22;19459;53.044;8.910;2023-04-01T07:51:44;10.80;99.90
33095;DHT22;19459;53.044;8.910;2023-04-01T07:54:32;10.80;99.90
33095;DHT22;19459;53.044;8.910;2023-04-01T07:57:12;10.90;99.90
33095;DHT22;19459;53.044;8.910;2023-04-01T07:59:59;11.00;99.90
33095;DHT22;19459;53.044;8.910;2023-04-01T08:05:26;11.00;99.90
33095;DHT22;19459;53.044;8.910;2023-04-01T08:13:43;11.10;99.90
33095;DHT22;19459;53.044;8.910;2023-04-01T08:21:49;11.00;99.90
33095;DHT22;19459;53.044;8.910;2023-04-01T08:24:33;11.00;99.90
33095;DHT22;19459;53.044;8.910;2023-04-01T08:27:06;11.20;99.90
33095;DHT22;19459;53.044;8.910;2023-04-01T08:30:03;11.30;99.90
33095;DHT22;19459;53.044;8.910;2023-04-01T08:32:42;11.40;99.90
33095;DHT22;19459;53.044;8.910;2023-04-01T08:35:46;11.60;99.90
33095;DHT22;19459;53.044;8.910;2023-04-01T08:38:29;11.70;99.90
33095;DHT22;19459;53.044;8.910;2023-04-01T08:41:01;11.80;99.90
33095;DHT22;19459;53.044;8.910;2023-04-01T08:49:09;11.90;99.90
33095;DHT22;19459;53.044;8.910;2023-04-01T08:52:41;11.90;99.90
33095;DHT22;19459;53.044;8.910;2023-04-01T09:04:25;12.20;99.90
33095;DHT22;19459;53.044;8.910;2023-04-01T09:07:15;12.30;99.90
33095;DHT22;19459;53.044;8.910;2023-04-01T09:37:25;13.40;99.90
33095;DHT22;19459;53.044;8.910;2023-04-01T09:57:45;14.00;99.90
33095;DHT22;19459;53.044;8.910;2023-04-01T10:20:54;13.70;99.90
33095;DHT22;19459;53.044;8.910;2023-04-01T10:29:34;12.70;99.90
33095;DHT22;19459;53.044;8.910;2023-04-01T10:32:55;12.30;99.90
33095;DHT22;19459;53.044;8.910;2023-04-01T10:36:12;11.80;99.90
33095;DHT22;19459;53.044;8.910;2023-04-01T10:42:48;11.40;99.90
33095;DHT22;19459;53.044;8.910;2023-04-01T10:51:17;11.10;99.90
33095;DHT22;19459;53.044;8.910;2023-04-01T10:56:55;11.20;99.90
33095;DHT22;19459;53.044;8.910;2023-04-01T11:17:52;10.80;99.90
33095;DHT22;19459;53.044;8.910;2023-04-01T11:32:52;10.30;99.90
33095;DHT22;19459;53.044;8.910;2023-04-01T11:35:42;10.30;99.90
33095;DHT22;19459;53.044;8.910;2023-04-01T11:44:19;10.20;99.90
33095;DHT22;19459;53.044;8.910;2023-04-01T11:59:03;10.40;99.90
33095;DHT22;19459;53.044;8.910;2023-04-01T12:02:50;10.50;99.90
33095;DHT22;19459;53.044;8.910;2023-04-01T12:05:31;10.70;99.90
33095;DHT22;19459;53.044;8.910;2023-04-01T12:08:10;10.80;99.90
33095;DHT22;19459;53.044;8.910;2023-04-01T12:13:23;10.70;99.90
33095;DHT22;19459;53.044;8.910;2023-04-01T12:16:20;10.60;99.90
33095;DHT22;19459;53.044;8.910;2023-04-01T12:19:19;10.60;99.90
33095;DHT22;19459;53.044;8.910;2023-04-01T12:24:48;10.40;99.90
33095;DHT22;19459;53.044;8.910;2023-04-01T12:37:26;10.10;99.90
33095;DHT22;19459;53.044;8.910;2023-04-01T12:47:36;10.20;99.90
33095;DHT22;19459;53.044;8.910;2023-04-01T12:58:24;10.10;99.90
33095;DHT22;19459;53.044;8.910;2023-04-01T13:07:30;10.00;99.90
33095;DHT22;19459;53.044;8.910;2023-04-01T13:10:46;10.10;99.90
33095;DHT22;19459;53.044;8.910;2023-04-01T13:14:10;10.10;99.90
33095;DHT22;19459;53.044;8.910;2023-04-01T13:17:15;9.90;99.90
33095;DHT22;19459;53.044;8.910;2023-04-01T13:19:57;9.90;99.90
33095;DHT22;19459;53.044;8.910;2023-04-01T13:22:45;9.90;99.90
33095;DHT22;19459;53.044;8.910;2023-04-01T13:25:29;9.80;99.90
33095;DHT22;19459;53.044;8.910;2023-04-01T13:28:16;9.90;99.90
33095;DHT22;19459;53.044;8.910;2023-04-01T13:36:41;9.80;99.90
33095;DHT22;19459;53.044;8.910;2023-04-01T13:42:38;9.70;99.90
33095;DHT22;19459;53.044;8.910;2023-04-01T13:45:12;9.70;99.90
33095;DHT22;19459;53.044;8.910;2023-04-01T13:54:38;9.50;99.90
33095;DHT22;19459;53.044;8.910;2023-04-01T13:58:13;9.50;99.90
33095;DHT22;19459;53.044;8.910;2023-04-01T14:07:12;9.20;99.90
33095;DHT22;19459;53.044;8.910;2023-04-01T14:09:59;9.20;99.90
33095;DHT22;19459;53.044;8.910;2023-04-01T14:18:33;9.10;99.90
33095;DHT22;19459;53.044;8.910;2023-04-01T14:21:17;9.00;99.90
33095;DHT22;19459;53.044;8.910;2023-04-01T14:26:56;9.00;99.90
33095;DHT22;19459;53.044;8.910;2023-04-01T14:33:36;8.90;99.90
33095;DHT22;19459;53.044;8.910;2023-04-01T14:47:39;8.90;99.90
33095;DHT22;19459;53.044;8.910;2023-04-01T14:50:09;8.90;99.90
33095;DHT22;19459;53.044;8.910;2023-04-01T14:52:43;8.90;99.90
33095;DHT22;19459;53.044;8.910;2023-04-01T14:55:28;8.80;99.90
33095;DHT22;19459;53.044;8.910;2023-04-01T14:58:12;8.70;99.90
33095;DHT22;19459;53.044;8.910;2023-04-01T15:12:27;8.60;99.90
33095;DHT22;19459;53.044;8.910;2023-04-01T15:18:15;8.50;99.90
33095;DHT22;19459;53.044;8.910;2023-04-01T15:29:31;8.30;99.90
33095;DHT22;19459;53.044;8.910;2023-04-01T15:32:50;8.20;99.90
33095;DHT22;19459;53.044;8.910;2023-04-01T15:39:14;8.30;99.90
33095;DHT22;19459;53.044;8.910;2023-04-01T15:42:09;8.20;99.90
33095;DHT22;19459;53.044;8.910;2023-04-01T16:10:43;7.70;99.90
33095;DHT22;19459;53.044;8.910;2023-04-01T16:19:51;7.60;99.90
33095;DHT22;19459;53.044;8.910;2023-04-01T16:22:34;7.60;99.90
33095;DHT22;19459;53.044;8.910;2023-04-01T16:28:36;7.70;99.90
33095;DHT22;19459;53.044;8.910;2023-04-01T16:34:36;7.70;99.90
33095;DHT22;19459;53.044;8.910;2023-04-01T16:37:19;7.60;99.90
33095;DHT22;19459;53.044;8.910;2023-04-01T16:42:43;7.40;99.90
33095;DHT22;19459;53.044;8.910;2023-04-01T16:45:30;7.50;99.90
33095;DHT22;19459;53.044;8.910;2023-04-01T16:51:18;7.30;99.90
33095;DHT22;19459;53.044;8.910;2023-04-01T16:56:43;7.30;99.90
33095;DHT22;19459;53.044;8.910;2023-04-01T17:03:02;7.30;99.90
33095;DHT22;19459;53.044;8.910;2023-04-01T17:20:51;7.00;99.90
33095;DHT22;19459;53.044;8.910;2023-04-01T17:23:37;7.00;99.90
33095;DHT22;19459;53.044;8.910;2023-04-01T17:26:29;7.00;99.90
33095;DHT22;19459;53.044;8.910;2023-04-01T17:35:05;6.90;99.90
33095;DHT22;19459;53.044;8.910;2023-04-01T17:40:49;6.80;99.90
33095;DHT22;19459;53.044;8.910;2023-04-01T17:47:21;6.70;99.90
33095;DHT22;19459;53.044;8.910;2023-04-01T17:52:47;6.70;99.90
33095;DHT22;19459;53.044;8.910;2023-04-01T17:55:44;6.70;99.90
33095;DHT22;19459;53.044;8.910;2023-04-01T17:58:20;6.70;99.90
33095;DHT22;19459;53.044;8.910;2023-04-01T18:01:05;6.70;99.90
33095;DHT22;19459;53.044;8.910;2023-04-01T18:03:54;6.70;99.90
33095;DHT22;19459;53.044;8.910;2023-04-01T18:19:36;6.40;99.90
33095;DHT22;19459;53.044;8.910;2023-04-01T18:22:16;6.40;99.90
33095;DHT22;19459;53.044;8.910;2023-04-01T18:33:44;6.30;99.90
33095;DHT22;19459;53.044;8.910;2023-04-01T18:39:35;6.40;99.90
33095;DHT22;19459;53.044;8.910;2023-04-01T18:47:47;6.20;99.90
33095;DHT22;19459;53.044;8.910;2023-04-01T18:50:57;6.20;99.90
33095;DHT22;19459;53.044;8.910;2023-04-01T18:53:34;6.10;99.90
33095;DHT22;19459;53.044;8.910;2023-04-01T18:56:05;6.10;99.90
33095;DHT22;19459;53.044;8.910;2023-04-01T19:06:50;6.10;99.90
33095;DHT22;19459;53.044;8.910;2023-04-01T19:09:23;6.10;99.90
33095;DHT22;19459;53.044;8.910;2023-04-01T19:20:37;6.00;99.90
33095;DHT22;19459;53.044;8.910;2023-04-01T19:26:03;5.90;99.90
33095;DHT22;19459;53.044;8.910;2023-04-01T19:31:33;5.90;99.90
33095;DHT22;19459;53.044;8.910;2023-04-01T19:34:29;5.90;99.90
33095;DHT22;19459;53.044;8.910;2023-04-01T19:37:21;5.90;99.90
33095;DHT22;19459;53.044;8.910;2023-04-01T19:43:55;5.80;99.90
33095;DHT22;19459;53.044;8.910;2023-04-01T19:49:38;5.80;99.90
33095;DHT22;19459;53.044;8.910;2023-04-01T19:55:26;5.70;99.90
33095;DHT22;19459;53.044;8.910;2023-04-01T20:00:53;5.70;99.90
33095;DHT22;19459;53.044;8.910;2023-04-01T20:03:41;5.70;99.90
33095;DHT22;19459;53.044;8.910;2023-04-01T20:15:44;5.70;99.90
33095;DHT22;19459;53.044;8.910;2023-04-01T20:18:39;5.60;99.90
33095;DHT22;19459;53.044;8.910;2023-04-01T20:23:50;5.70;99.90
33095;DHT22;19459;53.044;8.910;2023-04-01T20:26:26;5.70;99.90
33095;DHT22;19459;53.044;8.910;2023-04-01T20:37:42;5.60;99.90
33095;DHT22;19459;53.044;8.910;2023-04-01T20:43:26;5.60;99.90
33095;DHT22;19459;53.044;8.910;2023-04-01T20:46:22;5.60;99.90
33095;DHT22;19459;53.044;8.910;2023-04-01T20:52:07;5.60;99.90
33095;DHT22;19459;53.044;8.910;2023-04-01T20:55:16;5.50;99.90
33095;DHT22;19459;53.044;8.910;2023-04-01T20:58:13;5.40;99.90
33095;DHT22;19459;53.044;8.910;2023-04-01T21:06:57;5.30;99.90
33095;DHT22;19459;53.044;8.910;2023-04-01T21:12:42;5.30;99.90
33095;DHT22;19459;53.044;8.910;2023-04-01T21:18:58;5.20;99.90
33095;DHT22;19459;53.044;8.910;2023-04-01T21:22:01;5.20;99.90
33095;DHT22;19459;53.044;8.910;2023-04-01T21:37:22;5.20;99.90
33095;DHT22;19459;53.044;8.910;2023-04-01T21:43:21;5.20;99.90
33095;DHT22;19459;53.044;8.910;2023-04-01T22:03:16;5.00;99.90
33095;DHT22;19459;53.044;8.910;2023-04-01T22:06:29;5.00;99.90
33095;DHT22;19459;53.044;8.910;2023-04-01T22:09:18;4.90;99.90
33095;DHT22;19459;53.044;8.910;2023-04-01T22:14:54;4.80;99.90
33095;DHT22;19459;53.044;8.910;2023-04-01T22:17:46;4.70;99.90
33095;DHT22;19459;53.044;8.910;2023-04-01T22:20:40;4.60;99.90
33095;DHT22;19459;53.044;8.910;2023-04-01T22:23:26;4.60;99.90
33095;DHT22;19459;53.044;8.910;2023-04-01T22:26:38;4.50;99.90
33095;DHT22;19459;53.044;8.910;2023-04-01T22:31:55;4.40;99.90
33095;DHT22;19459;53.044;8.910;2023-04-01T22:42:56;3.90;99.90
33095;DHT22;19459;53.044;8.910;2023-04-01T22:46:02;3.90;99.90
33095;DHT22;19459;53.044;8.910;2023-04-01T22:52:09;3.80;99.90
33095;DHT22;19459;53.044;8.910;2023-04-01T22:54:46;3.70;99.90
33095;DHT22;19459;53.044;8.910;2023-04-01T22:57:40;3.70;99.90
33095;DHT22;19459;53.044;8.910;2023-04-01T23:00:33;3.60;99.90
33095;DHT22;19459;53.044;8.910;2023-04-01T23:03:21;3.60;99.90
33095;DHT22;19459;53.044;8.910;2023-04-01T23:05:58;3.60;99.90
33095;DHT22;19459;53.044;8.910;2023-04-01T23:11:20;3.60;99.90
33095;DHT22;19459;53.044;8.910;2023-04-01T23:14:39;3.50;99.90
33095;DHT22;19459;53.044;8.910;2023-04-01T23:16:51;3.40;99.90
33095;DHT22;19459;53.044;8.910;2023-04-01T23:19:41;3.40;99.90
33095;DHT22;19459;53.044;8.910;2023-04-01T23:28:14;3.30;99.90
33095;DHT22;19459;53.044;8.910;2023-04-01T23:33:23;3.30;99.90
33095;DHT22;19459;53.044;8.910;2023-04-01T23:36:13;3.30;99.90
33095;DHT22;19459;53.044;8.910;2023-04-01T23:38:41;3.30;99.90
33095;DHT22;19459;53.044;8.910;2023-04-01T23:41:16;3.20;99.90
33095;DHT22;19459;53.044;8.910;2023-04-01T23:44:04;3.20;99.90
33095;DHT22;19459;53.044;8.910;2023-04-01T23:46:35;3.10;99.90
33095;DHT22;19459;53.044;8.910;2023-04-01T23:49:03;3.10;99.90
33095;DHT22;19459;53.044;8.910;2023-04-01T23:51:39;3.10;99.90
33095;DHT22;19459;53.044;8.910;2023-04-01T23:57:38;3.10;99.90
